Time;durP1;ratioP1;P1;durP2;ratioP2;P2;SDS_P1;SDS_P2;PMS_P1;PMS_P2;Temp;Humidity;BMP_temperature;BMP_pressure;BME280_temperature;BME280_humidity;BME280_pressure;Samples;Min_cycle;Max_cycle;Signal;HPM_P1;HPM_P2
2022/04/26 03:36:37;;;;;;;26.05;14.40;;;;;;;;;;5016716;28;20060;-83
2022/04/26 03:39:03;;;;;;;24.42;14.68;;;;;;;;;;5000408;28;20463;-83
2022/04/26 03:41:30;;;;;;;26.42;16.20;;;;;;;;;;4981575;28;20037;-83
2022/04/26 03:43:56;;;;;;;23.83;14.55;;;;;;;;;;4990064;28;20433;-83
2022/04/26 03:46:22;;;;;;;25.83;14.98;;;;;;;;;;4995687;28;20083;-83
2022/04/26 03:48:48;;;;;;;22.88;14.43;;;;;;;;;;4997234;28;20097;-82
2022/04/26 03:51:15;;;;;;;23.77;14.52;;;;;;;;;;4998638;28;20053;-83
2022/04/26 03:53:40;;;;;;;24.67;14.90;;;;;;;;;;4994360;28;20033;-84
2022/04/26 03:56:06;;;;;;;24.98;15.63;;;;;;;;;;4997296;28;20578;-83
2022/04/26 03:58:33;;;;;;;24.17;16.15;;;;;;;;;;4992445;28;20029;-83
2022/04/26 04:00:59;;;;;;;24.70;15.45;;;;;;;;;;4995927;28;20036;-83
2022/04/26 04:03:25;;;;;;;24.92;14.52;;;;;;;;;;4997185;28;20045;-83
2022/04/26 04:05:51;;;;;;;23.75;14.95;;;;;;;;;;4997082;28;20165;-83
2022/04/26 04:08:17;;;;;;;25.25;15.75;;;;;;;;;;4995753;28;20036;-83
2022/04/26 04:10:43;;;;;;;24.65;15.30;;;;;;;;;;4994556;28;20061;-83
2022/04/26 04:13:10;;;;;;;28.00;17.02;;;;;;;;;;4996023;28;20030;-83
2022/04/26 04:15:36;;;;;;;28.25;17.23;;;;;;;;;;4995600;28;20689;-83
2022/04/26 04:18:02;;;;;;;30.08;16.63;;;;;;;;;;4995539;28;20061;-83
2022/04/26 04:20:29;;;;;;;23.80;14.57;;;;;;;;;;4990840;28;20064;-83
2022/04/26 04:22:56;;;;;;;25.35;14.63;;;;;;;;;;4993846;28;20489;-82
2022/04/26 04:25:22;;;;;;;25.00;15.15;;;;;;;;;;4995779;28;20026;-83
2022/04/26 04:27:48;;;;;;;24.65;14.90;;;;;;;;;;4997667;28;20033;-83
2022/04/26 04:30:15;;;;;;;22.40;14.75;;;;;;;;;;4996903;28;20031;-83
2022/04/26 04:32:41;;;;;;;23.48;15.10;;;;;;;;;;4996334;28;20564;-83
2022/04/26 04:35:07;;;;;;;25.63;14.60;;;;;;;;;;4997438;28;20030;-83
2022/04/26 04:37:33;;;;;;;25.98;14.77;;;;;;;;;;4995167;28;20029;-83
2022/04/26 04:39:59;;;;;;;24.73;15.52;;;;;;;;;;4995349;28;20030;-82
2022/04/26 04:42:25;;;;;;;24.10;15.77;;;;;;;;;;4993712;28;20122;-82
2022/04/26 04:44:53;;;;;;;25.27;15.50;;;;;;;;;;4995070;28;20109;-82
2022/04/26 04:47:19;;;;;;;26.77;17.08;;;;;;;;;;4993288;28;20030;-83
2022/04/26 04:49:45;;;;;;;24.42;15.90;;;;;;;;;;4993932;28;20031;-83
2022/04/26 04:52:11;;;;;;;23.95;15.20;;;;;;;;;;4993369;28;20038;-83
2022/04/26 04:54:37;;;;;;;25.08;15.90;;;;;;;;;;4993493;28;20019;-82
2022/04/26 04:57:06;;;;;;;23.05;14.95;;;;;;;;;;4993651;28;20381;-83
2022/04/26 04:59:32;;;;;;;25.60;16.90;;;;;;;;;;4995215;28;20022;-82
2022/04/26 05:01:58;;;;;;;23.92;15.63;;;;;;;;;;4995447;28;20141;-82
2022/04/26 05:04:24;;;;;;;26.10;15.32;;;;;;;;;;4994834;28;20080;-83
2022/04/26 05:06:50;;;;;;;30.55;16.98;;;;;;;;;;4989984;28;20290;-83
2022/04/26 05:09:16;;;;;;;26.55;16.13;;;;;;;;;;4992852;28;20038;-83
2022/04/26 05:11:42;;;;;;;29.10;16.25;;;;;;;;;;4991560;28;20023;-83
2022/04/26 05:14:08;;;;;;;27.23;15.43;;;;;;;;;;4991526;28;20089;-83
2022/04/26 05:16:34;;;;;;;28.90;15.45;;;;;;;;;;4990840;28;20031;-83
2022/04/26 05:19:00;;;;;;;30.70;16.33;;;;;;;;;;4993551;28;20035;-83
2022/04/26 05:21:26;;;;;;;21.90;15.23;;;;;;;;;;4994440;28;20060;-82
2022/04/26 05:26:36;;;;;;;24.02;15.38;;;;;;;;;;4995596;28;20045;-82
2022/04/26 05:29:05;;;;;;;23.65;14.70;;;;;;;;;;4991009;28;20034;-82
2022/04/26 05:31:31;;;;;;;22.80;14.70;;;;;;;;;;4993436;28;20057;-82
2022/04/26 05:33:57;;;;;;;21.48;13.30;;;;;;;;;;4993175;28;20045;-82
2022/04/26 05:36:23;;;;;;;22.13;14.05;;;;;;;;;;4995861;28;20097;-82
2022/04/26 05:38:49;;;;;;;22.17;14.52;;;;;;;;;;4993953;28;20116;-82
2022/04/26 05:41:15;;;;;;;22.83;13.70;;;;;;;;;;4998259;28;20551;-82
2022/04/26 05:43:41;;;;;;;21.00;13.98;;;;;;;;;;5000294;28;20050;-83
2022/04/26 05:46:13;;;;;;;23.65;15.20;;;;;;;;;;4998832;28;20060;-82
2022/04/26 05:48:43;;;;;;;22.95;15.07;;;;;;;;;;5000795;28;20027;-82
2022/04/26 05:51:09;;;;;;;21.05;12.48;;;;;;;;;;5000678;28;20041;-82
2022/04/26 05:53:35;;;;;;;21.55;13.70;;;;;;;;;;5000721;28;20030;-82
2022/04/26 05:56:01;;;;;;;22.17;14.43;;;;;;;;;;5000608;28;20088;-82
2022/04/26 05:58:27;;;;;;;19.75;13.43;;;;;;;;;;4999656;28;20080;-82
2022/04/26 06:00:53;;;;;;;22.90;13.90;;;;;;;;;;5000861;28;20539;-82
2022/04/26 06:03:19;;;;;;;22.15;13.80;;;;;;;;;;4998917;28;20038;-82
2022/04/26 06:05:45;;;;;;;21.30;13.13;;;;;;;;;;4999089;28;20362;-82
2022/04/26 06:08:11;;;;;;;21.83;14.63;;;;;;;;;;5000644;28;20018;-82
2022/04/26 06:10:39;;;;;;;20.67;13.80;;;;;;;;;;5000381;28;20049;-83
2022/04/26 06:13:05;;;;;;;20.20;13.27;;;;;;;;;;4998571;28;20049;-82
2022/04/26 06:15:31;;;;;;;21.48;15.20;;;;;;;;;;4999248;28;20101;-83
2022/04/26 06:17:57;;;;;;;18.95;13.77;;;;;;;;;;4998902;28;20057;-82
2022/04/26 06:20:25;;;;;;;21.15;14.20;;;;;;;;;;4998891;28;20022;-82
2022/04/26 06:22:51;;;;;;;22.73;14.88;;;;;;;;;;4998925;28;20481;-82
2022/04/26 06:25:17;;;;;;;22.83;15.00;;;;;;;;;;5000460;28;20037;-82
2022/04/26 06:27:43;;;;;;;22.23;14.88;;;;;;;;;;4998430;28;20022;-83
2022/04/26 06:30:09;;;;;;;22.45;15.07;;;;;;;;;;4998505;28;20473;-82
2022/04/26 06:32:35;;;;;;;21.55;13.55;;;;;;;;;;4998034;28;20032;-82
2022/04/26 06:35:01;;;;;;;21.48;14.15;;;;;;;;;;4999509;28;20026;-83
2022/04/26 06:37:27;;;;;;;20.70;13.98;;;;;;;;;;4998317;28;20019;-83
2022/04/26 06:39:53;;;;;;;21.75;14.70;;;;;;;;;;4997565;28;20034;-83
2022/04/26 06:42:20;;;;;;;22.15;13.90;;;;;;;;;;4997626;28;20149;-83
2022/04/26 06:44:46;;;;;;;22.33;14.90;;;;;;;;;;4998229;28;20026;-83
2022/04/26 06:47:12;;;;;;;22.58;14.60;;;;;;;;;;4998890;28;20030;-83
2022/04/26 06:49:38;;;;;;;26.55;14.65;;;;;;;;;;4999388;28;20335;-83
2022/04/26 06:52:04;;;;;;;22.55;14.88;;;;;;;;;;4997930;28;20033;-82
2022/04/26 06:54:30;;;;;;;21.15;14.50;;;;;;;;;;4999292;28;20019;-82
2022/04/26 06:56:56;;;;;;;22.08;14.15;;;;;;;;;;5001611;28;20029;-82
2022/04/26 06:59:22;;;;;;;22.05;14.52;;;;;;;;;;5001582;28;20405;-83
2022/04/26 07:01:52;;;;;;;20.70;14.23;;;;;;;;;;4999567;28;20429;-83
2022/04/26 07:04:19;;;;;;;21.02;14.23;;;;;;;;;;4999283;28;20054;-82
2022/04/26 07:06:45;;;;;;;23.00;14.40;;;;;;;;;;4997996;28;20053;-83
2022/04/26 07:09:11;;;;;;;21.75;13.93;;;;;;;;;;4999104;28;20027;-83
2022/04/26 07:11:37;;;;;;;21.15;13.48;;;;;;;;;;4982151;28;20131;-82
2022/04/26 07:14:04;;;;;;;24.10;15.30;;;;;;;;;;4979883;28;20057;-82
2022/04/26 07:16:30;;;;;;;22.40;14.50;;;;;;;;;;4980047;28;20027;-83
2022/04/26 07:18:56;;;;;;;22.15;14.30;;;;;;;;;;4994971;28;20105;-83
2022/04/26 07:21:22;;;;;;;23.10;13.98;;;;;;;;;;4999240;28;20485;-82
2022/04/26 07:23:48;;;;;;;21.80;13.55;;;;;;;;;;4997798;28;20105;-83
2022/04/26 07:26:14;;;;;;;19.98;13.27;;;;;;;;;;4997530;28;20066;-82
2022/04/26 07:28:40;;;;;;;21.10;13.35;;;;;;;;;;4999032;28;20026;-82
2022/04/26 07:31:08;;;;;;;21.65;13.63;;;;;;;;;;4999184;28;20034;-83
2022/04/26 07:36:22;;;;;;;21.63;13.57;;;;;;;;;;4999194;28;20037;-83
2022/04/26 07:38:49;;;;;;;20.50;13.45;;;;;;;;;;4997329;28;20038;-83
2022/04/26 07:41:15;;;;;;;19.77;13.00;;;;;;;;;;4991320;28;20019;-83
2022/04/26 07:43:41;;;;;;;20.33;12.32;;;;;;;;;;4978978;28;20057;-83
2022/04/26 07:46:07;;;;;;;20.45;14.02;;;;;;;;;;4978466;28;20034;-82
2022/04/26 07:48:34;;;;;;;18.50;12.63;;;;;;;;;;4987689;28;20129;-83
2022/04/26 07:51:00;;;;;;;19.25;12.35;;;;;;;;;;4998798;28;20022;-83
2022/04/26 07:53:27;;;;;;;22.10;13.93;;;;;;;;;;4998567;28;20022;-83
2022/04/26 07:55:53;;;;;;;18.70;13.05;;;;;;;;;;4996750;28;20172;-83
2022/04/26 07:58:19;;;;;;;19.00;12.60;;;;;;;;;;4997201;28;20436;-83
2022/04/26 08:00:45;;;;;;;19.00;12.50;;;;;;;;;;4997032;28;20372;-83
2022/04/26 08:03:11;;;;;;;19.27;12.27;;;;;;;;;;4997259;28;20532;-83
2022/04/26 08:05:37;;;;;;;20.38;13.13;;;;;;;;;;4998649;28;20242;-83
2022/04/26 08:08:03;;;;;;;19.77;12.70;;;;;;;;;;4996611;28;20030;-83
2022/04/26 08:10:29;;;;;;;19.33;12.50;;;;;;;;;;4992553;28;20077;-83
2022/04/26 08:12:55;;;;;;;20.27;13.88;;;;;;;;;;4996953;28;20030;-83
2022/04/26 08:15:21;;;;;;;19.33;13.02;;;;;;;;;;4998397;28;20023;-83
2022/04/26 08:17:48;;;;;;;18.63;12.55;;;;;;;;;;4998930;28;20022;-83
2022/04/26 08:20:15;;;;;;;19.33;11.45;;;;;;;;;;4997027;28;20068;-83
2022/04/26 08:22:41;;;;;;;17.60;11.65;;;;;;;;;;4998105;28;20026;-83
2022/04/26 08:27:52;;;;;;;20.45;13.07;;;;;;;;;;4983456;28;20053;-83
2022/04/26 08:30:18;;;;;;;17.88;11.85;;;;;;;;;;4979447;28;20054;-83
2022/04/26 08:32:45;;;;;;;21.20;13.38;;;;;;;;;;4998418;28;20053;-83
2022/04/26 08:35:13;;;;;;;19.30;12.65;;;;;;;;;;4999784;28;20022;-83
2022/04/26 08:37:39;;;;;;;18.33;12.55;;;;;;;;;;5000393;28;20033;-83
2022/04/26 08:40:07;;;;;;;20.55;12.43;;;;;;;;;;4998230;28;20030;-83
2022/04/26 08:42:39;;;;;;;18.08;12.45;;;;;;;;;;4995903;28;20066;-83
2022/04/26 08:45:06;;;;;;;17.92;11.85;;;;;;;;;;4994697;28;20030;-83
2022/04/26 08:53:03;;;;;;;17.58;11.57;;;;;;;;;;4997745;28;20412;-83
2022/04/26 08:55:31;;;;;;;18.08;12.07;;;;;;;;;;4997685;28;20025;-83
2022/04/26 08:57:57;;;;;;;19.77;13.00;;;;;;;;;;4989719;28;20031;-84
2022/04/26 09:00:23;;;;;;;18.48;11.52;;;;;;;;;;4997834;28;20411;-84
2022/04/26 09:03:05;;;;;;;17.42;11.10;;;;;;;;;;4998760;28;20045;-84
2022/04/26 09:05:31;;;;;;;18.27;12.63;;;;;;;;;;4998022;28;20026;-84
2022/04/26 09:07:58;;;;;;;15.80;11.25;;;;;;;;;;4996769;28;20038;-83
2022/04/26 09:10:25;;;;;;;18.67;11.85;;;;;;;;;;4997562;28;20491;-84
2022/04/26 09:12:57;;;;;;;22.13;12.73;;;;;;;;;;4997465;28;20474;-83
2022/04/26 09:15:24;;;;;;;18.50;12.90;;;;;;;;;;4996816;28;20081;-83
2022/04/26 09:17:50;;;;;;;17.77;12.05;;;;;;;;;;4996820;28;20034;-83
2022/04/26 09:20:32;;;;;;;18.42;11.93;;;;;;;;;;4997548;28;20023;-84
2022/04/26 09:22:59;;;;;;;17.23;11.85;;;;;;;;;;4996484;28;20026;-83
2022/04/26 09:25:25;;;;;;;16.70;11.85;;;;;;;;;;4997816;28;20069;-83
2022/04/26 09:27:57;;;;;;;19.48;12.25;;;;;;;;;;4997116;28;20057;-83
2022/04/26 09:30:28;;;;;;;16.88;11.65;;;;;;;;;;4996763;28;20030;-83
2022/04/26 09:32:54;;;;;;;18.63;12.45;;;;;;;;;;4997671;28;20027;-83
2022/04/26 09:35:24;;;;;;;16.90;10.70;;;;;;;;;;4998347;28;20504;-84
2022/04/26 09:37:51;;;;;;;17.20;11.10;;;;;;;;;;4977801;28;20078;-83
2022/04/26 09:40:20;;;;;;;17.48;11.35;;;;;;;;;;4976289;28;20481;-84
2022/04/26 09:42:50;;;;;;;15.52;10.93;;;;;;;;;;4978173;28;20137;-81
2022/04/26 09:45:17;;;;;;;17.17;11.43;;;;;;;;;;4978182;28;20023;-84
2022/04/26 09:47:44;;;;;;;17.08;11.50;;;;;;;;;;4998101;28;20034;-83
2022/04/26 09:50:14;;;;;;;18.35;11.65;;;;;;;;;;4998261;28;20026;-84
2022/04/26 09:52:41;;;;;;;17.02;11.73;;;;;;;;;;4996831;28;20086;-83
2022/04/26 09:55:07;;;;;;;19.63;11.30;;;;;;;;;;4996096;28;20085;-83
2022/04/26 09:57:34;;;;;;;16.50;11.23;;;;;;;;;;4991385;28;20058;-83
2022/04/26 10:00:01;;;;;;;15.50;10.65;;;;;;;;;;4995716;28;20034;-84
2022/04/26 10:02:30;;;;;;;17.17;11.13;;;;;;;;;;4996837;28;20022;-83
2022/04/26 10:04:59;;;;;;;18.58;11.60;;;;;;;;;;4997456;28;20023;-84
2022/04/26 10:07:27;;;;;;;16.75;11.80;;;;;;;;;;4996550;28;20076;-83
2022/04/26 10:09:54;;;;;;;17.90;12.35;;;;;;;;;;4996694;28;20125;-84
2022/04/26 10:12:21;;;;;;;19.23;12.32;;;;;;;;;;4996583;28;20026;-83
2022/04/26 10:14:48;;;;;;;18.48;12.07;;;;;;;;;;4997541;28;20052;-83
2022/04/26 10:17:19;;;;;;;20.48;14.20;;;;;;;;;;4996096;28;20037;-83
2022/04/26 10:19:45;;;;;;;16.92;10.95;;;;;;;;;;4997041;28;20077;-83
2022/04/26 10:22:15;;;;;;;19.40;11.77;;;;;;;;;;4997214;28;20018;-84
2022/04/26 10:24:41;;;;;;;14.55;10.77;;;;;;;;;;4997610;28;20040;-83
2022/04/26 10:27:18;;;;;;;14.48;10.40;;;;;;;;;;4990773;28;20035;-82
2022/04/26 10:29:44;;;;;;;17.35;12.18;;;;;;;;;;4998997;28;20026;-83
2022/04/26 10:32:11;;;;;;;15.05;10.55;;;;;;;;;;4999246;28;20050;-83
2022/04/26 10:34:39;;;;;;;18.83;12.63;;;;;;;;;;4999272;28;20027;-83
2022/04/26 10:37:09;;;;;;;15.95;10.93;;;;;;;;;;5000217;28;20026;-83
2022/04/26 10:39:46;;;;;;;16.20;11.48;;;;;;;;;;5000872;28;20025;-83
2022/04/26 10:42:12;;;;;;;17.90;11.45;;;;;;;;;;5000856;28;20042;-83
2022/04/26 10:44:40;;;;;;;18.40;11.90;;;;;;;;;;5000314;28;20029;-83
2022/04/26 10:47:06;;;;;;;22.92;13.38;;;;;;;;;;4999697;28;20373;-83
2022/04/26 10:49:32;;;;;;;18.15;12.60;;;;;;;;;;4999225;28;20030;-83
2022/04/26 10:52:23;;;;;;;18.95;12.82;;;;;;;;;;4999713;28;20030;-83
2022/04/26 10:54:58;;;;;;;18.88;12.93;;;;;;;;;;5000628;28;20033;-83
2022/04/26 10:57:26;;;;;;;21.45;13.10;;;;;;;;;;4999356;28;20018;-83
2022/04/26 10:59:56;;;;;;;18.05;12.45;;;;;;;;;;4996458;28;20023;-83
2022/04/26 11:02:23;;;;;;;20.80;12.88;;;;;;;;;;5014702;28;20018;-83
2022/04/26 11:05:00;;;;;;;18.10;11.93;;;;;;;;;;5019094;28;20034;-82
2022/04/26 11:07:27;;;;;;;20.80;13.60;;;;;;;;;;5019239;28;20023;-83
2022/04/26 11:09:54;;;;;;;19.27;12.02;;;;;;;;;;5019071;28;20015;-83
2022/04/26 11:12:24;;;;;;;22.65;13.75;;;;;;;;;;5018250;28;20037;-82
2022/04/26 11:14:51;;;;;;;15.73;10.98;;;;;;;;;;5004675;28;20039;-83
2022/04/26 11:17:18;;;;;;;14.00;10.30;;;;;;;;;;4997998;28;20026;-83
2022/04/26 11:19:55;;;;;;;16.35;11.35;;;;;;;;;;4996853;28;20037;-83
2022/04/26 11:22:22;;;;;;;17.88;12.55;;;;;;;;;;4996724;28;20026;-83
2022/04/26 11:30:24;;;;;;;27.02;13.35;;;;;;;;;;4978609;28;20062;-82
2022/04/26 11:32:50;;;;;;;16.58;11.68;;;;;;;;;;4978137;28;20085;-83
2022/04/26 11:35:16;;;;;;;17.98;12.18;;;;;;;;;;4996532;28;20130;-83
2022/04/26 11:37:43;;;;;;;15.77;11.45;;;;;;;;;;4998369;28;20019;-83
2022/04/26 11:40:09;;;;;;;18.88;13.10;;;;;;;;;;5009803;28;20028;-82
2022/04/26 11:42:35;;;;;;;15.95;12.68;;;;;;;;;;5018597;28;20050;-83
2022/04/26 11:45:04;;;;;;;14.95;12.13;;;;;;;;;;5018178;28;20041;-83
2022/04/26 11:47:40;;;;;;;16.02;11.73;;;;;;;;;;5017440;28;20049;-83
2022/04/26 11:50:13;;;;;;;15.88;10.82;;;;;;;;;;5014930;28;20026;-80
2022/04/26 11:52:39;;;;;;;13.63;10.23;;;;;;;;;;5003155;28;20034;-81
2022/04/26 11:55:06;;;;;;;15.07;11.25;;;;;;;;;;4998120;28;20129;-81
2022/04/26 11:57:32;;;;;;;12.85;9.90;;;;;;;;;;4999232;28;20045;-83
2022/04/26 11:59:59;;;;;;;12.90;9.05;;;;;;;;;;5000673;28;20077;-82
2022/04/26 12:02:26;;;;;;;13.73;9.77;;;;;;;;;;5004744;28;20022;-82
2022/04/26 12:04:53;;;;;;;11.60;8.68;;;;;;;;;;5001150;28;20080;-82
2022/04/26 12:07:19;;;;;;;11.80;9.00;;;;;;;;;;4999255;28;20015;-83
2022/04/26 12:09:45;;;;;;;11.60;8.40;;;;;;;;;;4999170;28;20413;-82
2022/04/26 12:12:12;;;;;;;12.13;7.97;;;;;;;;;;5000118;28;20030;-83
2022/04/26 12:14:41;;;;;;;8.73;6.38;;;;;;;;;;5002211;28;20030;-82
2022/04/26 12:17:17;;;;;;;12.70;8.52;;;;;;;;;;5000020;28;20030;-82
2022/04/26 12:19:50;;;;;;;10.25;7.05;;;;;;;;;;5006814;28;20030;-83
2022/04/26 12:22:16;;;;;;;12.75;7.03;;;;;;;;;;5008119;28;20151;-83
2022/04/26 12:24:46;;;;;;;14.65;8.98;;;;;;;;;;5007110;28;20029;-83
2022/04/26 12:27:13;;;;;;;11.25;8.38;;;;;;;;;;5004402;28;20053;-83
2022/04/26 12:29:41;;;;;;;11.55;8.40;;;;;;;;;;4986728;28;20027;-83
2022/04/26 12:32:07;;;;;;;11.68;8.40;;;;;;;;;;4987503;28;20022;-83
2022/04/26 12:34:33;;;;;;;12.27;8.68;;;;;;;;;;5002178;28;20038;-84
2022/04/26 12:37:00;;;;;;;13.98;9.50;;;;;;;;;;5006657;28;20053;-83
2022/04/26 12:39:28;;;;;;;12.40;9.63;;;;;;;;;;5006693;28;20037;-83
2022/04/26 12:41:56;;;;;;;14.45;10.45;;;;;;;;;;5007376;28;20049;-83
2022/04/26 12:44:22;;;;;;;11.60;8.43;;;;;;;;;;5003784;28;20026;-83
2022/04/26 12:52:32;;;;;;;14.27;9.68;;;;;;;;;;5000228;28;20053;-83
2022/04/26 12:54:58;;;;;;;15.05;9.48;;;;;;;;;;5007530;28;20026;-83
2022/04/26 12:57:25;;;;;;;13.18;9.45;;;;;;;;;;5005558;28;20026;-83
2022/04/26 12:59:51;;;;;;;12.88;8.98;;;;;;;;;;5005784;28;20025;-82
2022/04/26 13:02:17;;;;;;;12.90;9.85;;;;;;;;;;5007240;28;20086;-83
2022/04/26 13:04:43;;;;;;;14.60;10.25;;;;;;;;;;5004689;28;20473;-83
2022/04/26 13:07:09;;;;;;;13.68;9.52;;;;;;;;;;5001631;28;20081;-83
2022/04/26 13:09:35;;;;;;;12.95;9.18;;;;;;;;;;5006991;28;20081;-83
2022/04/26 13:12:01;;;;;;;12.52;9.55;;;;;;;;;;5006352;28;20022;-83
2022/04/26 13:14:27;;;;;;;12.10;8.32;;;;;;;;;;4994116;28;20035;-83
2022/04/26 13:16:53;;;;;;;11.73;8.75;;;;;;;;;;4988498;28;20019;-83
2022/04/26 13:19:19;;;;;;;11.73;8.65;;;;;;;;;;4990325;28;20027;-83
2022/04/26 13:21:45;;;;;;;13.65;9.82;;;;;;;;;;4995972;28;20010;-83
2022/04/26 13:24:11;;;;;;;13.35;8.82;;;;;;;;;;5010210;28;20037;-83
2022/04/26 13:26:37;;;;;;;11.43;8.40;;;;;;;;;;5009186;28;20031;-83
2022/04/26 13:29:05;;;;;;;14.27;9.55;;;;;;;;;;5010783;28;20034;-83
2022/04/26 13:31:31;;;;;;;11.93;8.55;;;;;;;;;;5006253;28;20025;-83
2022/04/26 13:33:58;;;;;;;13.82;9.45;;;;;;;;;;5006913;28;20089;-83
2022/04/26 13:36:27;;;;;;;13.52;9.40;;;;;;;;;;5011291;28;20042;-83
2022/04/26 13:38:55;;;;;;;12.43;8.90;;;;;;;;;;5010347;28;20053;-83
2022/04/26 13:41:21;;;;;;;12.77;8.85;;;;;;;;;;5010552;28;20018;-83
2022/04/26 13:43:48;;;;;;;15.02;8.25;;;;;;;;;;5005858;28;20054;-83
2022/04/26 13:46:14;;;;;;;14.65;8.57;;;;;;;;;;5010618;28;20045;-83
2022/04/26 13:48:40;;;;;;;13.43;8.70;;;;;;;;;;5010385;28;20045;-83
2022/04/26 13:51:07;;;;;;;13.68;8.52;;;;;;;;;;5009718;28;20050;-83
2022/04/26 13:53:33;;;;;;;11.80;8.27;;;;;;;;;;5009792;28;20022;-83
2022/04/26 13:56:00;;;;;;;10.85;7.93;;;;;;;;;;5008092;28;20021;-83
2022/04/26 13:58:26;;;;;;;10.05;7.53;;;;;;;;;;5008530;28;20027;-83
2022/04/26 14:00:52;;;;;;;14.95;8.35;;;;;;;;;;4991413;28;20023;-83
2022/04/26 14:03:18;;;;;;;11.40;7.57;;;;;;;;;;5011502;28;20031;-81
2022/04/26 14:05:46;;;;;;;11.65;7.65;;;;;;;;;;5011838;28;20037;-81
2022/04/26 14:08:13;;;;;;;10.95;7.97;;;;;;;;;;5008592;28;20026;-81
2022/04/26 14:10:40;;;;;;;10.45;7.55;;;;;;;;;;5007142;28;20029;-82
2022/04/26 14:13:06;;;;;;;11.00;7.82;;;;;;;;;;5010914;28;20128;-82
2022/04/26 14:23:48;;;;;;;12.35;9.10;;;;;;;;;;4992645;28;20056;-82
2022/04/26 14:26:15;;;;;;;12.95;9.00;;;;;;;;;;5007548;28;20031;-81
2022/04/26 14:28:41;;;;;;;12.55;8.90;;;;;;;;;;4986846;28;20023;-81
2022/04/26 14:31:07;;;;;;;12.27;8.70;;;;;;;;;;5007449;28;20030;-82
2022/04/26 14:33:33;;;;;;;11.32;8.23;;;;;;;;;;5004858;28;20061;-81
2022/04/26 14:35:59;;;;;;;11.50;8.02;;;;;;;;;;5006219;28;20029;-81
2022/04/26 14:38:26;;;;;;;10.30;7.60;;;;;;;;;;5007873;28;20030;-81
2022/04/26 14:40:52;;;;;;;14.10;8.20;;;;;;;;;;5008067;28;20049;-81
2022/04/26 14:43:18;;;;;;;11.13;7.72;;;;;;;;;;5006584;28;20046;-81
2022/04/26 14:45:45;;;;;;;11.38;7.75;;;;;;;;;;5008266;28;20034;-81
2022/04/26 14:48:12;;;;;;;10.20;7.32;;;;;;;;;;5005796;28;20022;-82
2022/04/26 14:50:39;;;;;;;10.57;7.65;;;;;;;;;;5011222;28;20057;-82
2022/04/26 14:53:05;;;;;;;10.13;6.82;;;;;;;;;;5007106;28;20026;-82
2022/04/26 14:55:31;;;;;;;11.32;6.15;;;;;;;;;;5013074;28;20017;-82
2022/04/26 14:57:57;;;;;;;10.52;7.47;;;;;;;;;;5010773;28;20557;-82
2022/04/26 15:00:23;;;;;;;11.77;7.65;;;;;;;;;;5012316;28;20042;-82
2022/04/26 15:02:49;;;;;;;12.25;8.13;;;;;;;;;;5012747;28;20030;-82
2022/04/26 15:05:16;;;;;;;11.88;8.52;;;;;;;;;;5010952;28;20555;-82
2022/04/26 15:10:27;;;;;;;12.27;8.40;;;;;;;;;;5012648;28;20060;-82
2022/04/26 15:18:23;;;;;;;11.82;8.20;;;;;;;;;;5013302;28;20064;-84
2022/04/26 15:20:50;;;;;;;11.77;8.43;;;;;;;;;;5010786;28;20027;-83
2022/04/26 15:23:17;;;;;;;11.48;8.38;;;;;;;;;;5010856;28;20026;-84
2022/04/26 15:25:50;;;;;;;12.65;9.45;;;;;;;;;;5011240;28;20054;-84
2022/04/26 15:28:16;;;;;;;11.73;8.35;;;;;;;;;;5013211;28;20109;-83
2022/04/26 15:30:43;;;;;;;12.30;8.50;;;;;;;;;;5011207;28;20033;-83
2022/04/26 15:33:10;;;;;;;11.80;8.18;;;;;;;;;;5010588;28;20018;-83
2022/04/26 15:35:38;;;;;;;13.38;9.40;;;;;;;;;;5012462;28;20022;-83
2022/04/26 15:38:04;;;;;;;11.95;8.35;;;;;;;;;;5011922;28;20033;-83
2022/04/26 15:40:30;;;;;;;12.90;8.45;;;;;;;;;;5010339;28;20058;-83
2022/04/26 15:42:56;;;;;;;13.10;8.75;;;;;;;;;;5011134;28;20050;-83
2022/04/26 15:45:22;;;;;;;11.90;7.82;;;;;;;;;;5009884;28;20037;-83
2022/04/26 15:47:48;;;;;;;12.60;8.25;;;;;;;;;;5008694;28;20034;-83
2022/04/26 15:50:14;;;;;;;12.57;8.65;;;;;;;;;;5010820;28;20057;-83
2022/04/26 15:52:40;;;;;;;11.20;7.60;;;;;;;;;;5010897;28;20034;-83
2022/04/26 15:55:07;;;;;;;15.18;8.60;;;;;;;;;;5009410;28;20030;-83
2022/04/26 15:57:33;;;;;;;11.93;8.45;;;;;;;;;;5009318;28;20025;-82
2022/04/26 16:00:00;;;;;;;10.93;8.40;;;;;;;;;;5012436;28;20022;-83
2022/04/26 16:02:27;;;;;;;11.50;8.20;;;;;;;;;;5001963;28;20046;-83
2022/04/26 16:04:53;;;;;;;14.45;8.15;;;;;;;;;;5008486;28;20029;-83
2022/04/26 16:07:19;;;;;;;12.10;7.53;;;;;;;;;;5007797;28;20022;-83
2022/04/26 16:20:43;;;;;;;10.68;7.85;;;;;;;;;;5005983;28;20029;-82
2022/04/26 16:23:09;;;;;;;11.05;7.72;;;;;;;;;;5006943;28;20081;-83
2022/04/26 16:25:35;;;;;;;11.18;7.82;;;;;;;;;;5006446;28;20026;-82
2022/04/26 16:28:02;;;;;;;11.27;8.73;;;;;;;;;;5021988;28;20077;-83
2022/04/26 16:30:32;;;;;;;12.45;7.30;;;;;;;;;;5005676;28;20029;-82
2022/04/26 16:32:59;;;;;;;15.10;9.75;;;;;;;;;;5006282;28;20050;-83
2022/04/26 16:35:25;;;;;;;12.82;7.50;;;;;;;;;;5003912;28;20077;-83
2022/04/26 16:37:55;;;;;;;12.70;7.53;;;;;;;;;;5005374;28;20023;-83
2022/04/26 16:40:21;;;;;;;10.98;7.13;;;;;;;;;;5003288;28;20026;-84
2022/04/26 16:42:47;;;;;;;11.85;7.38;;;;;;;;;;4997272;28;20050;-83
2022/04/26 16:45:13;;;;;;;12.68;8.30;;;;;;;;;;5002497;28;20516;-83
2022/04/26 16:47:39;;;;;;;10.70;6.63;;;;;;;;;;5005449;28;20034;-83
2022/04/26 16:50:06;;;;;;;10.15;7.03;;;;;;;;;;5005834;28;20022;-83
2022/04/26 16:52:33;;;;;;;12.38;7.53;;;;;;;;;;5003588;28;20026;-84
2022/04/26 16:54:59;;;;;;;9.90;6.97;;;;;;;;;;5003448;28;20424;-81
2022/04/26 16:57:28;;;;;;;11.32;6.78;;;;;;;;;;5003067;28;20392;-82
2022/04/26 16:59:57;;;;;;;9.32;6.40;;;;;;;;;;5002999;28;20026;-84
2022/04/26 17:02:27;;;;;;;10.02;6.90;;;;;;;;;;5001945;28;20029;-81
2022/04/26 17:04:53;;;;;;;8.73;6.20;;;;;;;;;;5003991;28;20038;-82
2022/04/26 17:07:19;;;;;;;9.35;6.90;;;;;;;;;;5003796;28;20034;-81
2022/04/26 17:09:46;;;;;;;11.02;6.95;;;;;;;;;;5003587;28;20121;-82
2022/04/26 17:12:14;;;;;;;10.65;6.88;;;;;;;;;;5001090;28;20050;-82
2022/04/26 17:14:41;;;;;;;10.07;7.15;;;;;;;;;;4998401;28;20030;-83
2022/04/26 17:17:08;;;;;;;9.40;6.32;;;;;;;;;;5001071;28;20022;-82
2022/04/26 17:19:34;;;;;;;9.85;6.70;;;;;;;;;;5002220;28;20441;-82
2022/04/26 17:22:01;;;;;;;11.35;7.35;;;;;;;;;;5000560;28;20408;-83
2022/04/26 17:27:11;;;;;;;10.40;6.50;;;;;;;;;;5001395;28;20052;-82
2022/04/26 17:29:37;;;;;;;8.95;6.40;;;;;;;;;;4999252;28;20026;-82
2022/04/26 17:32:04;;;;;;;9.30;6.40;;;;;;;;;;4997439;28;20081;-83
2022/04/26 17:34:30;;;;;;;9.77;6.85;;;;;;;;;;4997295;28;20038;-82
2022/04/26 17:36:56;;;;;;;8.77;6.18;;;;;;;;;;5006031;28;20164;-83
2022/04/26 17:39:22;;;;;;;10.52;6.78;;;;;;;;;;5005864;28;20027;-83
2022/04/26 17:41:49;;;;;;;9.52;6.43;;;;;;;;;;5006468;28;20082;-83
2022/04/26 17:44:16;;;;;;;10.77;7.43;;;;;;;;;;5005130;28;20117;-83
2022/04/26 17:46:42;;;;;;;9.05;5.80;;;;;;;;;;5003483;28;20023;-82
2022/04/26 17:49:08;;;;;;;14.10;7.28;;;;;;;;;;5003503;28;20134;-82
2022/04/26 17:51:34;;;;;;;10.43;7.20;;;;;;;;;;5008080;28;20034;-83
2022/04/26 17:56:45;;;;;;;11.75;6.63;;;;;;;;;;5001843;28;20034;-83
2022/04/26 17:59:11;;;;;;;9.65;6.75;;;;;;;;;;5006606;28;20030;-83
2022/04/26 18:01:39;;;;;;;9.38;6.63;;;;;;;;;;5003179;28;20110;-83
2022/04/26 18:04:05;;;;;;;10.43;7.95;;;;;;;;;;4996421;28;20034;-82
2022/04/26 18:06:32;;;;;;;10.15;8.05;;;;;;;;;;5005833;28;20031;-82
2022/04/26 18:08:58;;;;;;;11.90;8.10;;;;;;;;;;5020152;28;20033;-82
2022/04/26 18:11:24;;;;;;;11.75;7.90;;;;;;;;;;5003360;28;20033;-82
2022/04/26 18:13:52;;;;;;;9.60;7.03;;;;;;;;;;5001664;28;20045;-82
2022/04/26 18:16:21;;;;;;;11.13;8.13;;;;;;;;;;5001050;28;20023;-83
2022/04/26 18:18:47;;;;;;;11.73;9.30;;;;;;;;;;5000158;28;20113;-83
2022/04/26 18:21:16;;;;;;;17.30;9.65;;;;;;;;;;4999746;28;20049;-83
2022/04/26 18:23:42;;;;;;;11.10;8.68;;;;;;;;;;5003559;28;20033;-83
2022/04/26 18:26:11;;;;;;;13.55;10.55;;;;;;;;;;5001876;28;20041;-83
2022/04/26 18:28:39;;;;;;;17.60;12.70;;;;;;;;;;5001995;28;20122;-82
2022/04/26 18:31:05;;;;;;;17.35;12.60;;;;;;;;;;5001414;28;20050;-83
2022/04/26 18:33:31;;;;;;;12.90;9.82;;;;;;;;;;5009041;28;20026;-83
2022/04/26 18:35:57;;;;;;;14.35;9.98;;;;;;;;;;5003124;28;20023;-82
2022/04/26 18:38:24;;;;;;;13.18;9.85;;;;;;;;;;5006798;28;20026;-82
2022/04/26 18:40:50;;;;;;;33.88;22.40;;;;;;;;;;5002996;28;20026;-82
2022/04/26 18:43:16;;;;;;;24.70;18.35;;;;;;;;;;5002507;28;20207;-82
2022/04/26 18:45:42;;;;;;;15.65;12.38;;;;;;;;;;5001815;28;20030;-82
2022/04/26 18:48:08;;;;;;;11.13;7.65;;;;;;;;;;5002282;28;20037;-82
2022/04/26 18:50:35;;;;;;;11.05;8.35;;;;;;;;;;5003638;28;20102;-82
2022/04/26 18:53:01;;;;;;;12.38;7.90;;;;;;;;;;5002995;28;20058;-82
2022/04/26 18:55:27;;;;;;;9.93;7.78;;;;;;;;;;5004259;28;20121;-82